createdAt,value
2018-01-03T00:00:46.734Z,97680.33
2018-01-03T00:02:24.659Z,97687.70
2018-01-03T00:04:01.323Z,97715.61
2018-01-03T00:05:38.029Z,97707.73
2018-01-03T00:07:15.278Z,97700.85
2018-01-03T00:08:54.030Z,97693.36
2018-01-03T00:10:30.777Z,97725.25
2018-01-03T00:12:08.298Z,97740.48
2018-01-03T00:13:45.289Z,97759.66
2018-01-03T00:15:24.474Z,97790.69
2018-01-03T00:17:02.061Z,97804.63
2018-01-03T00:18:39.580Z,97824.28
2018-01-03T00:20:16.129Z,97864.40
2018-01-03T00:21:53.634Z,97874.84
2018-01-03T00:23:30.161Z,97887.97
2018-01-03T00:25:07.174Z,97884.91
2018-01-03T00:26:43.933Z,97824.78
2018-01-03T00:28:20.788Z,97840.95
2018-01-03T00:29:57.693Z,97901.55
2018-01-03T00:31:34.602Z,97966.09
2018-01-03T00:33:11.968Z,97989.70
2018-01-03T00:34:49.023Z,98028.58
2018-01-03T00:36:25.768Z,98012.46
2018-01-03T00:38:02.540Z,98032.53
2018-01-03T00:39:39.836Z,98066.20
2018-01-03T00:41:17.267Z,98132.20
2018-01-03T00:42:55.421Z,98173.26
2018-01-03T00:44:32.366Z,98177.64
2018-01-03T00:46:17.711Z,98245.84
2018-01-03T00:47:54.856Z,98237.48
2018-01-03T00:49:31.387Z,98246.81
2018-01-03T00:51:08.458Z,98196.86
2018-01-03T00:52:47.601Z,98165.83
2018-01-03T00:54:25.466Z,98125.63
2018-01-03T00:56:02.325Z,98075.75
2018-01-03T00:57:40.321Z,98059.63
2018-01-03T00:59:17.091Z,98027.75
2018-01-03T01:00:54.285Z,97997.23
2018-01-03T01:02:30.998Z,98087.20
2018-01-03T01:04:08.279Z,98154.94
2018-01-03T01:05:48.224Z,98191.59
2018-01-03T01:07:25.018Z,98177.67
2018-01-03T01:09:01.925Z,98158.45
2018-01-03T01:10:39.063Z,98133.09
2018-01-03T01:12:16.401Z,98109.50
2018-01-03T01:13:53.144Z,98004.70
2018-01-03T01:15:29.928Z,98057.97
2018-01-03T01:17:07.850Z,98095.09
2018-01-03T01:18:45.604Z,98114.31
2018-01-03T01:20:22.261Z,98147.11
2018-01-03T01:21:58.923Z,98174.66
2018-01-03T01:23:36.404Z,98141.03
2018-01-03T01:25:13.417Z,98004.73
2018-01-03T01:26:51.266Z,97924.41
2018-01-03T01:28:28.044Z,97999.39
2018-01-03T01:30:10.135Z,98041.81
2018-01-03T01:31:47.701Z,98100.41
2018-01-03T01:33:25.614Z,98104.76
2018-01-03T01:35:03.037Z,98059.27
2018-01-03T01:36:39.915Z,98043.54
2018-01-03T01:38:16.682Z,97973.73
2018-01-03T01:39:53.509Z,97859.37
2018-01-03T01:41:31.339Z,97812.34
2018-01-03T01:43:08.383Z,97916.94
2018-01-03T01:44:45.195Z,97959.31
2018-01-03T01:46:22.072Z,97921.75
2018-01-03T01:47:59.395Z,97899.55
2018-01-03T01:49:36.740Z,97820.94
2018-01-03T01:51:13.670Z,97684.45
2018-01-03T01:52:51.166Z,97705.90
2018-01-03T01:54:28.143Z,97832.84
2018-01-03T01:56:05.527Z,97920.02
2018-01-03T01:57:42.408Z,97932.72
2018-01-03T01:59:19.106Z,97778.25
2018-01-03T02:00:56.136Z,97552.83
2018-01-03T02:02:33.899Z,97532.03
2018-01-03T02:04:10.372Z,97641.83
2018-01-03T02:05:47.829Z,97746.42
2018-01-03T02:07:24.549Z,97793.59
2018-01-03T02:09:02.189Z,97744.24
2018-01-03T02:10:39.034Z,97651.86
2018-01-03T02:12:16.426Z,97477.14
2018-01-03T02:13:53.857Z,97390.12
2018-01-03T02:15:38.005Z,97480.14
2018-01-03T02:17:15.257Z,97647.05
2018-01-03T02:18:52.825Z,97716.37
2018-01-03T02:20:30.234Z,97749.94
2018-01-03T02:22:10.085Z,97811.52
2018-01-03T02:23:46.900Z,97873.43
2018-01-03T02:25:24.429Z,97912.23
2018-01-03T02:27:01.104Z,97662.34
2018-01-03T02:28:38.634Z,97688.86
2018-01-03T02:30:17.439Z,97777.06
2018-01-03T02:31:53.919Z,97751.30
2018-01-03T02:33:30.636Z,97782.63
2018-01-03T02:35:08.400Z,97750.87
2018-01-03T02:36:45.897Z,97818.03
2018-01-03T02:38:34.213Z,97883.44
2018-01-03T02:40:11.325Z,97938.46
2018-01-03T02:41:48.443Z,97960.20
2018-01-03T02:43:27.110Z,97999.53
2018-01-03T02:45:03.926Z,97968.16
2018-01-03T02:46:41.191Z,97995.63
2018-01-03T02:48:17.915Z,97930.53
2018-01-03T02:49:54.877Z,98000.00
2018-01-03T02:51:32.473Z,98004.37
2018-01-03T02:53:10.346Z,97794.48
2018-01-03T02:54:46.989Z,97783.91
2018-01-03T02:56:23.970Z,97710.23
2018-01-03T02:58:00.911Z,97862.92
2018-01-03T02:59:38.511Z,97978.08
2018-01-03T03:01:15.824Z,98063.31
2018-01-03T03:02:53.691Z,98048.06
2018-01-03T03:04:30.369Z,98086.88
2018-01-03T03:06:07.561Z,98076.81
2018-01-03T03:07:53.759Z,98085.58
2018-01-03T03:09:30.728Z,98111.47
2018-01-03T03:11:07.406Z,98128.92
2018-01-03T03:12:44.747Z,98139.38
2018-01-03T03:14:26.062Z,98130.55
2018-01-03T03:16:02.762Z,98159.95
2018-01-03T03:17:39.346Z,98173.86
2018-01-03T03:19:16.355Z,98173.03
2018-01-03T03:20:54.721Z,98134.63
2018-01-03T03:22:31.371Z,98069.09
2018-01-03T03:24:08.142Z,98067.41
2018-01-03T03:25:45.243Z,97960.38
2018-01-03T03:27:22.062Z,98141.27
2018-01-03T03:28:59.156Z,98245.65
2018-01-03T03:30:37.544Z,98213.67
2018-01-03T03:32:24.830Z,98093.08
2018-01-03T03:34:01.596Z,97959.02
2018-01-03T03:35:38.344Z,98102.27
2018-01-03T03:37:15.020Z,98166.56
2018-01-03T03:38:52.452Z,98210.69
2018-01-03T03:40:29.183Z,98230.84
2018-01-03T03:42:05.885Z,98313.05
2018-01-03T03:43:42.611Z,98325.80
2018-01-03T03:45:24.462Z,98357.34
2018-01-03T03:47:01.512Z,98413.84
2018-01-03T03:48:38.315Z,98439.19
2018-01-03T03:50:14.990Z,98449.22
2018-01-03T03:51:53.282Z,98471.64
2018-01-03T03:53:30.039Z,98502.27
2018-01-03T03:55:07.733Z,98507.48
2018-01-03T03:56:44.624Z,98599.52
2018-01-03T03:58:21.857Z,98533.40
2018-01-03T03:59:59.269Z,98647.75
2018-01-03T04:01:37.425Z,98786.45
2018-01-03T04:03:14.152Z,98806.08
2018-01-03T04:04:51.595Z,98857.47
2018-01-03T04:06:29.387Z,98857.03
2018-01-03T04:08:11.272Z,98888.36
2018-01-03T04:09:47.893Z,98929.98
2018-01-03T04:11:25.025Z,98948.05
2018-01-03T04:13:01.673Z,98982.83
2018-01-03T04:14:38.440Z,99035.50
2018-01-03T04:16:15.191Z,99073.72
2018-01-03T04:17:52.315Z,99007.32
2018-01-03T04:19:28.986Z,99031.07
2018-01-03T04:21:05.529Z,99034.64
2018-01-03T04:22:43.278Z,98968.69
2018-01-03T04:24:19.834Z,98907.23
2018-01-03T04:25:56.310Z,98823.46
2018-01-03T04:27:33.144Z,98765.36
2018-01-03T04:29:10.508Z,98665.82
2018-01-03T04:30:47.543Z,98545.31
2018-01-03T04:32:24.642Z,98428.84
2018-01-03T04:34:01.465Z,98275.61
2018-01-03T04:35:39.656Z,98216.13
2018-01-03T04:37:16.260Z,98211.75
2018-01-03T04:38:52.937Z,98205.64
2018-01-03T04:40:30.661Z,98250.23
2018-01-03T04:42:07.608Z,98261.59
2018-01-03T04:43:44.231Z,98251.09
2018-01-03T04:45:21.195Z,98201.25
2018-01-03T04:47:00.698Z,98240.17
2018-01-03T04:48:38.098Z,98320.23
2018-01-03T04:50:15.010Z,98364.05
2018-01-03T04:51:51.627Z,98365.84
2018-01-03T04:53:29.226Z,98385.95
2018-01-03T04:55:06.566Z,98459.56
2018-01-03T04:56:43.651Z,98541.88
2018-01-03T04:58:20.388Z,98577.81
2018-01-03T04:59:57.022Z,98469.60
2018-01-03T05:01:34.279Z,98470.53
2018-01-03T05:03:10.886Z,98577.84
2018-01-03T05:04:48.473Z,98573.89
2018-01-03T05:06:25.063Z,98485.40
2018-01-03T05:08:03.031Z,98609.92
2018-01-03T05:09:51.839Z,98583.60
2018-01-03T05:11:29.257Z,98596.28
2018-01-03T05:13:05.832Z,98635.69
2018-01-03T05:14:42.966Z,98678.73
2018-01-03T05:16:20.701Z,98662.48
2018-01-03T05:17:57.267Z,98680.56
2018-01-03T05:19:34.113Z,98606.39
2018-01-03T05:21:11.417Z,98644.08
2018-01-03T05:22:48.289Z,98671.30
2018-01-03T05:24:25.599Z,98542.88
2018-01-03T05:26:02.500Z,98612.12
2018-01-03T05:27:39.442Z,98652.89
2018-01-03T05:29:16.538Z,98602.91
2018-01-03T05:30:53.160Z,98641.97
2018-01-03T05:32:30.428Z,98545.47
2018-01-03T05:34:07.370Z,98457.03
2018-01-03T05:35:43.906Z,98478.52
2018-01-03T05:37:20.799Z,98533.23
2018-01-03T05:38:57.853Z,98418.47
2018-01-03T05:40:34.500Z,98464.48
2018-01-03T05:42:11.394Z,98448.22
2018-01-03T05:43:48.087Z,98405.86
2018-01-03T05:45:27.685Z,98525.77
2018-01-03T05:47:04.809Z,98624.43
2018-01-03T05:48:45.964Z,98706.83
2018-01-03T05:50:22.766Z,98720.88
2018-01-03T05:52:00.272Z,98704.63
2018-01-03T05:53:38.026Z,98740.16
2018-01-03T05:55:14.689Z,98780.17
2018-01-03T05:56:52.065Z,98786.23
2018-01-03T05:58:28.572Z,98831.55
2018-01-03T06:00:06.161Z,98754.31
2018-01-03T06:01:57.636Z,98709.49
2018-01-03T06:03:34.295Z,98685.82
2018-01-03T06:05:10.904Z,98648.09
2018-01-03T06:06:48.383Z,98665.70
2018-01-03T06:08:25.468Z,98677.09
2018-01-03T06:10:02.035Z,98598.54
2018-01-03T06:11:39.664Z,98586.66
2018-01-03T06:13:17.021Z,98576.17
2018-01-03T06:14:54.888Z,98550.73
2018-01-03T06:16:32.217Z,98447.82
2018-01-03T06:18:10.428Z,98485.06
2018-01-03T06:19:47.745Z,98528.41
2018-01-03T06:21:24.339Z,98519.66
2018-01-03T06:23:01.158Z,98591.98
2018-01-03T06:24:38.296Z,98569.66
2018-01-03T06:26:14.906Z,98647.23
2018-01-03T06:27:51.955Z,98572.75
2018-01-03T06:29:29.383Z,98534.16
2018-01-03T06:31:06.471Z,98542.01
2018-01-03T06:32:43.180Z,98551.66
2018-01-03T06:34:19.700Z,98616.98
2018-01-03T06:35:56.460Z,98669.64
2018-01-03T06:37:33.127Z,98713.02
2018-01-03T06:39:22.145Z,98701.60
2018-01-03T06:40:58.703Z,98553.42
2018-01-03T06:42:35.931Z,98645.00
2018-01-03T06:44:12.573Z,98644.14
2018-01-03T06:45:49.828Z,98606.45
2018-01-03T06:47:27.165Z,98638.81
2018-01-03T06:49:04.476Z,98565.70
2018-01-03T06:50:41.181Z,98592.45
2018-01-03T06:52:17.795Z,98611.78
2018-01-03T06:53:54.445Z,98659.52
2018-01-03T06:55:32.166Z,98770.08
2018-01-03T06:57:08.781Z,98640.27
2018-01-03T06:58:45.469Z,98662.17
2018-01-03T07:00:30.714Z,98498.70
2018-01-03T07:02:07.737Z,98462.31
2018-01-03T07:03:45.148Z,98404.97
2018-01-03T07:05:21.746Z,98445.75
2018-01-03T07:06:58.610Z,98374.39
2018-01-03T07:08:35.821Z,98438.24
2018-01-03T07:10:12.379Z,98373.09
2018-01-03T07:11:48.953Z,98363.82
2018-01-03T07:13:25.879Z,98400.70
2018-01-03T07:15:03.048Z,98450.98
2018-01-03T07:16:39.874Z,98528.00
2018-01-03T07:18:17.166Z,98617.50
2018-01-03T07:19:53.772Z,98615.22
2018-01-03T07:21:30.935Z,98559.55
2018-01-03T07:23:07.648Z,98045.42
2018-01-03T07:24:44.284Z,97337.59
2018-01-03T07:26:21.133Z,96951.38
2018-01-03T07:27:58.866Z,96752.38
2018-01-03T07:29:36.617Z,96669.66
2018-01-03T07:31:14.357Z,96555.36
2018-01-03T07:32:52.403Z,96490.03
2018-01-03T07:34:29.915Z,96425.61
2018-01-03T07:36:07.355Z,96390.91
2018-01-03T07:37:44.011Z,96435.06
2018-01-03T07:39:20.540Z,96477.02
2018-01-03T07:40:57.604Z,96544.47
2018-01-03T07:42:34.165Z,96615.95
2018-01-03T07:44:11.000Z,96657.45
2018-01-03T07:45:47.847Z,96731.07
2018-01-03T07:47:26.753Z,96777.87
2018-01-03T07:49:03.569Z,96827.28
2018-01-03T07:50:40.060Z,96889.69
2018-01-03T07:52:18.077Z,96971.11
2018-01-03T07:53:54.556Z,97018.59
2018-01-03T07:55:31.984Z,97050.28
2018-01-03T07:57:08.648Z,97091.88
2018-01-03T07:58:45.887Z,97153.11
2018-01-03T08:00:30.196Z,97201.42
2018-01-03T08:02:06.752Z,97275.30
2018-01-03T08:03:43.313Z,97338.38
2018-01-03T08:05:20.548Z,97341.34
2018-01-03T08:06:57.661Z,97323.11
2018-01-03T08:08:35.236Z,97283.51
2018-01-03T08:10:12.968Z,97301.77
2018-01-03T08:11:50.375Z,97323.11
2018-01-03T08:13:27.171Z,97288.77
2018-01-03T08:15:03.999Z,97336.62
2018-01-03T08:16:41.604Z,97403.55
2018-01-03T08:18:18.793Z,97417.95
2018-01-03T08:19:55.825Z,97488.42
2018-01-03T08:21:33.425Z,97514.58
2018-01-03T08:23:16.585Z,97446.17
2018-01-03T08:24:53.043Z,97456.58
2018-01-03T08:26:30.261Z,97503.63
2018-01-03T08:28:06.799Z,97557.20
2018-01-03T08:29:43.512Z,97571.62
2018-01-03T08:31:21.108Z,97591.27
2018-01-03T08:32:58.420Z,97597.79
2018-01-03T08:34:35.628Z,97631.30
2018-01-03T08:36:22.462Z,97667.50
2018-01-03T08:37:59.095Z,97703.19
2018-01-03T08:39:35.602Z,97692.69
2018-01-03T08:41:12.138Z,97719.88
2018-01-03T08:42:49.067Z,97717.16
2018-01-03T08:44:26.508Z,97710.99
2018-01-03T08:46:03.193Z,97714.07
2018-01-03T08:47:39.708Z,97667.08
2018-01-03T08:49:17.038Z,97678.36
2018-01-03T08:50:54.191Z,97672.23
2018-01-03T08:52:30.668Z,97639.17
2018-01-03T08:54:07.185Z,97672.66
2018-01-03T08:55:43.830Z,97709.77
2018-01-03T08:57:20.835Z,97737.64
2018-01-03T08:58:57.768Z,97754.70
2018-01-03T09:00:34.666Z,97754.70
2018-01-03T09:02:12.007Z,97798.34
2018-01-03T09:03:48.986Z,97811.90
2018-01-03T09:05:25.648Z,97850.72
2018-01-03T09:07:02.958Z,97889.45
2018-01-03T09:08:39.729Z,97935.33
2018-01-03T09:10:18.140Z,97936.19
2018-01-03T09:11:55.429Z,97985.09
2018-01-03T09:13:32.736Z,97951.87
2018-01-03T09:15:09.487Z,97965.92
2018-01-03T09:16:48.054Z,97974.15
2018-01-03T09:18:24.537Z,97965.00
2018-01-03T09:20:01.056Z,97981.14
2018-01-03T09:21:37.693Z,97956.64
2018-01-03T09:23:15.603Z,97909.53
2018-01-03T09:24:52.329Z,97828.89
2018-01-03T09:26:28.944Z,97818.89
2018-01-03T09:28:06.663Z,97763.52
2018-01-03T09:29:44.317Z,97636.13
2018-01-03T09:31:20.964Z,97583.86
2018-01-03T09:32:57.613Z,97501.52
2018-01-03T09:34:34.272Z,97564.25
2018-01-03T09:36:11.606Z,97645.66
2018-01-03T09:37:50.040Z,97718.02
2018-01-03T09:39:26.666Z,97730.30
2018-01-03T09:41:03.577Z,97651.32
2018-01-03T09:42:40.936Z,97521.48
2018-01-03T09:44:17.612Z,97513.68
2018-01-03T09:45:54.480Z,97502.30
2018-01-03T09:47:31.213Z,97507.95
2018-01-03T09:49:09.065Z,97548.03
2018-01-03T09:50:46.416Z,97551.04
2018-01-03T09:52:23.012Z,97556.27
2018-01-03T09:53:59.700Z,97597.22
2018-01-03T09:55:36.722Z,97610.39
2018-01-03T09:57:13.181Z,97660.95
2018-01-03T09:58:49.761Z,97730.23
2018-01-03T10:00:27.789Z,97710.53
2018-01-03T10:02:04.641Z,97772.19
2018-01-03T10:03:41.202Z,97819.68
2018-01-03T10:05:18.401Z,97716.66
2018-01-03T10:06:54.965Z,97725.50
2018-01-03T10:08:32.905Z,97799.14
2018-01-03T10:10:09.510Z,97861.98
2018-01-03T10:11:46.918Z,97786.12
2018-01-03T10:13:23.551Z,97821.87
2018-01-03T10:15:00.800Z,97816.63
2018-01-03T10:16:37.499Z,97888.13
2018-01-03T10:18:14.585Z,97826.23
2018-01-03T10:19:51.146Z,97881.17
2018-01-03T10:21:28.044Z,97881.60
2018-01-03T10:23:04.712Z,97815.77
2018-01-03T10:24:41.482Z,97842.77
2018-01-03T10:26:18.770Z,97862.41
2018-01-03T10:27:56.572Z,97909.11
2018-01-03T10:29:33.850Z,97798.67
2018-01-03T10:31:10.458Z,97793.55
2018-01-03T10:32:47.144Z,97809.28
2018-01-03T10:34:24.114Z,97799.97
2018-01-03T10:36:00.708Z,97838.86
2018-01-03T10:37:37.256Z,97877.66
2018-01-03T10:39:13.796Z,97881.96
2018-01-03T10:40:50.953Z,97926.55
2018-01-03T10:42:28.261Z,97966.62
2018-01-03T10:44:09.861Z,97838.36
2018-01-03T10:45:47.223Z,97895.08
2018-01-03T10:47:24.797Z,97891.17
2018-01-03T10:49:02.210Z,97838.83
2018-01-03T10:50:38.864Z,97916.06
2018-01-03T10:52:15.594Z,98005.95
2018-01-03T10:53:52.883Z,97974.47
2018-01-03T10:55:29.438Z,98023.42
2018-01-03T10:57:06.293Z,97874.54
2018-01-03T10:58:42.919Z,97942.68
2018-01-03T11:00:20.414Z,97985.84
2018-01-03T11:01:57.771Z,98005.08
2018-01-03T11:03:35.202Z,97952.77
2018-01-03T11:05:11.730Z,97896.87
2018-01-03T11:06:48.767Z,97887.66
2018-01-03T11:08:26.010Z,97925.64
2018-01-03T11:10:02.623Z,97942.19
2018-01-03T11:11:39.109Z,97969.66
2018-01-03T11:13:16.092Z,97854.09
2018-01-03T11:14:52.736Z,97892.50
2018-01-03T11:16:29.593Z,97911.69
2018-01-03T11:18:06.896Z,97906.88
2018-01-03T11:19:44.143Z,97821.83
2018-01-03T11:21:21.357Z,97700.56
2018-01-03T11:22:57.912Z,97653.39
2018-01-03T11:24:34.802Z,97563.60
2018-01-03T11:26:12.160Z,97579.78
2018-01-03T11:27:50.330Z,97571.08
2018-01-03T11:29:26.953Z,97565.78
2018-01-03T11:31:04.492Z,97537.51
2018-01-03T11:32:41.355Z,97536.26
2018-01-03T11:34:18.209Z,97420.02
2018-01-03T11:35:56.444Z,97465.23
2018-01-03T11:37:35.808Z,97577.56
2018-01-03T11:39:14.517Z,97612.03
2018-01-03T11:40:51.566Z,97520.62
2018-01-03T11:42:28.444Z,97586.77
2018-01-03T11:44:05.143Z,97548.78
2018-01-03T11:45:42.122Z,97558.48
2018-01-03T11:47:18.826Z,97569.30
2018-01-03T11:48:57.799Z,97579.82
2018-01-03T11:50:34.483Z,97585.47
2018-01-03T11:52:11.113Z,97593.81
2018-01-03T11:53:48.496Z,97534.90
2018-01-03T11:55:26.378Z,97554.44
2018-01-03T11:57:04.033Z,97626.39
2018-01-03T11:58:40.850Z,97627.72
2018-01-03T12:00:20.540Z,97536.61
2018-01-03T12:01:57.488Z,97527.02
2018-01-03T12:03:34.889Z,97514.75
2018-01-03T12:05:11.439Z,97523.55
2018-01-03T12:06:48.887Z,97524.37
2018-01-03T12:08:28.391Z,97510.03
2018-01-03T12:10:05.077Z,97412.52
2018-01-03T12:11:44.648Z,97435.62
2018-01-03T12:13:21.768Z,97449.10
2018-01-03T12:14:59.700Z,97392.52
2018-01-03T12:16:40.622Z,97371.64
2018-01-03T12:18:18.956Z,97356.77
2018-01-03T12:19:56.586Z,97350.69
2018-01-03T12:21:33.612Z,97368.89
2018-01-03T12:23:10.974Z,97418.13
2018-01-03T12:24:47.584Z,97452.11
2018-01-03T12:26:24.866Z,97433.33
2018-01-03T12:28:02.819Z,97401.56
2018-01-03T12:29:39.417Z,97464.66
2018-01-03T12:31:17.337Z,97496.50
2018-01-03T12:32:54.402Z,97498.22
2018-01-03T12:34:31.571Z,97549.17
2018-01-03T12:36:08.984Z,97625.46
2018-01-03T12:37:45.968Z,97628.01
2018-01-03T12:39:22.758Z,97606.20
2018-01-03T12:40:59.910Z,97571.76
2018-01-03T12:42:36.547Z,97511.67
2018-01-03T12:44:13.938Z,97455.43
2018-01-03T12:45:51.837Z,97445.06
2018-01-03T12:47:30.490Z,97470.31
2018-01-03T12:49:08.179Z,97502.51
2018-01-03T12:50:44.948Z,97536.00
2018-01-03T12:52:21.570Z,97556.94
2018-01-03T12:53:58.433Z,97552.58
2018-01-03T12:55:35.079Z,97560.45
2018-01-03T12:57:12.447Z,97580.03
2018-01-03T12:58:49.150Z,97615.80
2018-01-03T13:00:28.363Z,97631.05
2018-01-03T13:02:06.616Z,97670.27
2018-01-03T13:03:43.317Z,97615.33
2018-01-03T13:05:19.904Z,97571.72
2018-01-03T13:06:57.185Z,97612.72
2018-01-03T13:08:34.014Z,97597.53
2018-01-03T13:10:10.715Z,97675.45
2018-01-03T13:11:47.404Z,97651.53
2018-01-03T13:13:30.777Z,97656.73
2018-01-03T13:15:07.453Z,97651.97
2018-01-03T13:16:44.407Z,97643.27
2018-01-03T13:18:21.690Z,97623.20
2018-01-03T13:19:58.844Z,97510.31
2018-01-03T13:21:35.609Z,97520.36
2018-01-03T13:23:12.264Z,97534.72
2018-01-03T13:24:48.864Z,97534.28
2018-01-03T13:26:25.903Z,97535.61
2018-01-03T13:28:02.532Z,97576.09
2018-01-03T13:29:39.933Z,97576.06
2018-01-03T13:31:20.217Z,97603.95
2018-01-03T13:32:57.452Z,97659.80
2018-01-03T13:34:33.972Z,97669.77
2018-01-03T13:36:10.802Z,97617.48
2018-01-03T13:37:49.499Z,97588.27
2018-01-03T13:39:26.565Z,97569.97
2018-01-03T13:41:03.158Z,97526.02
2018-01-03T13:42:40.749Z,97456.75
2018-01-03T13:44:17.922Z,97470.23
2018-01-03T13:45:56.034Z,97481.97
2018-01-03T13:47:32.662Z,97493.34
2018-01-03T13:49:09.583Z,97499.89
2018-01-03T13:50:46.290Z,97548.28
2018-01-03T13:52:24.067Z,97552.97
2018-01-03T13:54:00.797Z,97556.05
2018-01-03T13:55:37.554Z,97549.53
2018-01-03T13:57:14.622Z,97520.83
2018-01-03T13:58:51.938Z,97584.36
2018-01-03T14:00:30.244Z,97657.12
2018-01-03T14:02:06.980Z,97697.23
2018-01-03T14:03:44.508Z,97673.20
2018-01-03T14:05:21.240Z,97704.22
2018-01-03T14:06:59.146Z,97729.94
2018-01-03T14:08:39.753Z,97750.41
2018-01-03T14:10:18.435Z,97742.55
2018-01-03T14:11:55.146Z,97785.45
2018-01-03T14:13:33.524Z,97784.81
2018-01-03T14:15:10.346Z,97698.53
2018-01-03T14:16:54.181Z,97763.05
2018-01-03T14:18:31.732Z,97746.50
2018-01-03T14:20:08.577Z,97772.62
2018-01-03T14:21:45.551Z,97730.37
2018-01-03T14:23:25.614Z,97751.37
2018-01-03T14:25:02.617Z,97745.56
2018-01-03T14:26:39.398Z,97740.33
2018-01-03T14:28:16.206Z,97775.78
2018-01-03T14:29:57.719Z,97746.92
2018-01-03T14:31:34.635Z,97737.29
2018-01-03T14:33:11.620Z,97733.41
2018-01-03T14:34:48.596Z,97753.95
2018-01-03T14:36:27.943Z,97791.11
2018-01-03T14:38:05.643Z,97757.86
2018-01-03T14:39:42.556Z,97808.00
2018-01-03T14:41:19.998Z,97762.66
2018-01-03T14:42:57.050Z,97809.00
2018-01-03T14:44:33.925Z,97798.46
2018-01-03T14:46:11.229Z,97819.44
2018-01-03T14:47:48.814Z,97731.59
2018-01-03T14:49:26.585Z,97747.36
2018-01-03T14:51:03.359Z,97560.84
2018-01-03T14:52:40.462Z,97647.52
2018-01-03T14:54:18.276Z,97696.73
2018-01-03T14:55:56.774Z,97688.95
2018-01-03T14:57:33.890Z,97724.71
2018-01-03T14:59:11.856Z,97738.61
2018-01-03T15:00:53.531Z,97743.41
2018-01-03T15:02:31.376Z,97742.55
2018-01-03T15:04:09.964Z,97750.01
2018-01-03T15:05:50.021Z,97751.77
2018-01-03T15:07:31.107Z,97761.30
2018-01-03T15:09:10.465Z,97725.97
2018-01-03T15:10:48.969Z,97659.77
2018-01-03T15:12:32.361Z,97710.34
2018-01-03T15:14:09.159Z,97715.08
2018-01-03T15:15:46.617Z,97664.03
2018-01-03T15:17:23.288Z,97662.81
2018-01-03T15:19:01.152Z,97644.55
2018-01-03T15:20:38.129Z,97639.17
2018-01-03T15:22:15.475Z,97500.69
2018-01-03T15:23:55.784Z,97564.24
2018-01-03T15:25:33.676Z,97593.84
2018-01-03T15:27:10.693Z,97550.75
2018-01-03T15:28:50.125Z,97553.83
2018-01-03T15:30:31.216Z,97563.38
2018-01-03T15:32:10.895Z,97603.91
2018-01-03T15:33:48.511Z,97650.17
2018-01-03T15:35:25.777Z,97634.84
2018-01-03T15:37:04.543Z,97595.64
2018-01-03T15:38:41.391Z,97621.34
2018-01-03T15:40:19.516Z,97610.89
2018-01-03T15:41:57.785Z,97542.05
2018-01-03T15:45:13.089Z,97634.91
2018-01-03T15:46:50.801Z,97664.96
2018-01-03T15:48:27.944Z,97634.02
2018-01-03T15:50:05.445Z,97540.72
2018-01-03T15:51:42.173Z,97628.83
2018-01-03T15:53:18.918Z,97663.67
2018-01-03T15:54:56.380Z,97702.89
2018-01-03T15:56:39.696Z,97631.45
2018-01-03T15:58:18.657Z,97607.41
2018-01-03T15:59:55.985Z,97494.13
2018-01-03T16:01:34.568Z,97602.23
2018-01-03T16:03:13.410Z,97636.20
2018-01-03T16:04:51.540Z,97653.61
2018-01-03T16:06:28.665Z,97693.69
2018-01-03T16:08:09.564Z,97635.70
2018-01-03T16:09:49.782Z,97637.53
2018-01-03T16:11:28.089Z,97667.97
2018-01-03T16:13:04.870Z,97724.75
2018-01-03T16:14:45.709Z,97717.27
2018-01-03T16:16:28.844Z,97665.75
2018-01-03T16:18:06.478Z,97602.19
2018-01-03T16:19:45.366Z,97565.09
2018-01-03T16:21:23.421Z,97647.98
2018-01-03T16:23:01.049Z,97715.54
2018-01-03T16:24:41.337Z,97776.17
2018-01-03T16:26:18.768Z,97750.83
2018-01-03T16:27:55.988Z,97756.53
2018-01-03T16:29:32.789Z,97643.55
2018-01-03T16:31:09.780Z,97661.45
2018-01-03T16:32:46.885Z,97697.98
2018-01-03T16:34:25.218Z,97704.61
2018-01-03T16:36:03.665Z,97602.62
2018-01-03T16:37:42.250Z,97557.69
2018-01-03T16:39:20.986Z,97644.88
2018-01-03T16:41:00.862Z,97694.94
2018-01-03T16:42:39.835Z,97612.68
2018-01-03T16:44:17.267Z,97595.20
2018-01-03T16:45:56.101Z,97558.55
2018-01-03T16:47:35.230Z,97594.31
2018-01-03T16:49:17.087Z,97636.17
2018-01-03T16:50:55.119Z,97570.25
2018-01-03T16:52:38.827Z,97490.52
2018-01-03T16:54:16.374Z,97419.27
2018-01-03T16:55:54.696Z,97438.41
2018-01-03T16:57:32.608Z,97488.05
2018-01-03T16:59:10.593Z,97410.93
2018-01-03T17:00:49.034Z,97420.52
2018-01-03T17:02:25.825Z,97437.08
2018-01-03T17:04:02.611Z,97478.43
2018-01-03T17:05:40.195Z,97574.23
2018-01-03T17:07:20.693Z,97624.39
2018-01-03T17:09:00.066Z,97674.06
2018-01-03T17:10:39.034Z,97595.06
2018-01-03T17:12:18.933Z,97592.02
2018-01-03T17:13:56.135Z,97559.84
2018-01-03T17:15:35.331Z,97557.66
2018-01-03T17:17:14.142Z,97534.14
2018-01-03T17:18:53.281Z,97600.00
2018-01-03T17:20:32.787Z,97559.41
2018-01-03T17:22:11.646Z,97506.73
2018-01-03T17:23:52.127Z,97496.71
2018-01-03T17:25:31.621Z,97550.32
2018-01-03T17:27:09.957Z,97532.35
2018-01-03T17:28:49.644Z,97551.14
2018-01-03T17:30:33.293Z,97633.98
2018-01-03T17:32:13.501Z,97587.80
2018-01-03T17:35:36.277Z,97651.03
2018-01-03T17:37:17.508Z,97728.52
2018-01-03T17:38:55.188Z,97754.67
2018-01-03T17:40:33.585Z,97720.30
2018-01-03T17:42:13.841Z,97663.92
2018-01-03T17:43:52.737Z,97712.78
2018-01-03T17:45:40.852Z,97716.90
2018-01-03T17:47:19.389Z,97668.80
2018-01-03T17:48:57.461Z,97671.02
2018-01-03T17:50:36.438Z,97684.09
2018-01-03T17:52:14.798Z,97722.42
2018-01-03T17:53:52.725Z,97702.43
2018-01-03T17:58:25.794Z,97775.59
2018-01-03T18:00:04.694Z,97592.45
2018-01-03T18:01:42.916Z,97556.41
2018-01-03T18:03:19.989Z,97605.23
2018-01-03T18:05:00.181Z,97672.70
2018-01-03T18:06:42.608Z,97682.27
2018-01-03T18:08:22.904Z,97705.47
2018-01-03T18:10:00.039Z,97716.72
2018-01-03T18:11:39.777Z,97711.89
2018-01-03T18:13:19.355Z,97768.68
2018-01-03T18:14:58.083Z,97799.72
2018-01-03T18:16:39.892Z,97783.05
2018-01-03T18:18:21.621Z,97763.02
2018-01-03T18:20:00.909Z,97797.92
2018-01-03T18:21:39.642Z,97757.72
2018-01-03T18:23:19.010Z,97783.45
2018-01-03T18:24:56.939Z,97748.58
2018-01-03T18:26:35.511Z,97771.30
2018-01-03T18:28:16.872Z,97826.31
2018-01-03T18:30:03.755Z,97764.77
2018-01-03T18:31:47.942Z,97831.48
2018-01-03T18:33:31.914Z,97839.84
2018-01-03T18:35:16.941Z,97818.00
2018-01-03T18:37:02.111Z,97725.93
2018-01-03T18:38:47.406Z,97667.08
2018-01-03T18:40:29.426Z,97747.39
2018-01-03T18:42:11.316Z,97762.13
2018-01-03T18:43:59.763Z,97729.91
2018-01-03T18:45:42.010Z,97775.27
2018-01-03T18:47:20.058Z,97843.78
2018-01-03T18:48:58.297Z,97790.47
2018-01-03T18:50:35.302Z,97863.36
2018-01-03T18:52:13.055Z,97900.41
2018-01-03T18:53:54.948Z,97924.41
2018-01-03T18:55:35.787Z,97911.38
2018-01-03T18:57:13.141Z,97892.62
2018-01-03T18:58:50.881Z,97788.75
2018-01-03T19:00:33.260Z,97870.78
2018-01-03T19:02:12.866Z,97742.55
2018-01-03T19:03:52.407Z,97854.64
2018-01-03T19:05:30.278Z,97873.80
2018-01-03T19:07:09.888Z,97932.33
2018-01-03T19:08:48.709Z,97950.19
2018-01-03T19:12:04.519Z,97939.83
2018-01-03T19:13:44.656Z,97887.34
2018-01-03T19:15:22.242Z,97893.05
2018-01-03T19:16:59.142Z,97891.72